sensor_id;sensor_type;location;lat;lon;timestamp;P1;durP1;ratioP1;P2;durP2;ratioP2
5754;SDS011;2902;42.130;24.732;2023-07-28T00:02:00;5.97;;;2.60;;
5754;SDS011;2902;42.130;24.732;2023-07-28T00:04:29;2.53;;;2.33;;
5754;SDS011;2902;42.130;24.732;2023-07-28T00:06:55;2.53;;;2.43;;
5754;SDS011;2902;42.130;24.732;2023-07-28T00:09:22;2.60;;;2.50;;
5754;SDS011;2902;42.130;24.732;2023-07-28T00:11:49;2.93;;;2.73;;
5754;SDS011;2902;42.130;24.732;2023-07-28T00:14:15;2.60;;;2.50;;
5754;SDS011;2902;42.130;24.732;2023-07-28T00:16:42;2.70;;;2.40;;
5754;SDS011;2902;42.130;24.732;2023-07-28T00:19:09;4.40;;;2.80;;
5754;SDS011;2902;42.130;24.732;2023-07-28T00:21:37;2.20;;;2.10;;
5754;SDS011;2902;42.130;24.732;2023-07-28T00:24:04;2.70;;;2.60;;
5754;SDS011;2902;42.130;24.732;2023-07-28T00:26:31;2.83;;;2.73;;
5754;SDS011;2902;42.130;24.732;2023-07-28T00:28:58;2.80;;;2.60;;
5754;SDS011;2902;42.130;24.732;2023-07-28T00:31:24;3.07;;;2.87;;
5754;SDS011;2902;42.130;24.732;2023-07-28T00:33:51;3.30;;;2.70;;
5754;SDS011;2902;42.130;24.732;2023-07-28T00:36:18;2.70;;;2.47;;
5754;SDS011;2902;42.130;24.732;2023-07-28T00:38:46;3.20;;;3.00;;
5754;SDS011;2902;42.130;24.732;2023-07-28T00:41:13;2.90;;;2.50;;
5754;SDS011;2902;42.130;24.732;2023-07-28T00:43:39;2.50;;;2.40;;
5754;SDS011;2902;42.130;24.732;2023-07-28T00:46:06;2.40;;;2.20;;
5754;SDS011;2902;42.130;24.732;2023-07-28T00:48:34;2.13;;;2.00;;
5754;SDS011;2902;42.130;24.732;2023-07-28T00:51:01;2.47;;;2.37;;
5754;SDS011;2902;42.130;24.732;2023-07-28T00:53:27;2.63;;;2.37;;
5754;SDS011;2902;42.130;24.732;2023-07-28T00:55:56;2.80;;;2.63;;
5754;SDS011;2902;42.130;24.732;2023-07-28T00:58:23;2.93;;;2.73;;
5754;SDS011;2902;42.130;24.732;2023-07-28T01:00:50;3.33;;;2.70;;
5754;SDS011;2902;42.130;24.732;2023-07-28T01:03:17;2.77;;;2.57;;
5754;SDS011;2902;42.130;24.732;2023-07-28T01:05:47;2.93;;;2.70;;
5754;SDS011;2902;42.130;24.732;2023-07-28T01:08:22;2.70;;;2.60;;
5754;SDS011;2902;42.130;24.732;2023-07-28T01:10:54;2.70;;;2.60;;
5754;SDS011;2902;42.130;24.732;2023-07-28T01:13:22;3.77;;;2.70;;
5754;SDS011;2902;42.130;24.732;2023-07-28T01:15:49;2.93;;;2.60;;
5754;SDS011;2902;42.130;24.732;2023-07-28T01:18:16;2.50;;;2.40;;
5754;SDS011;2902;42.130;24.732;2023-07-28T01:20:42;2.57;;;2.47;;
5754;SDS011;2902;42.130;24.732;2023-07-28T01:23:14;2.50;;;2.40;;
5754;SDS011;2902;42.130;24.732;2023-07-28T01:25:49;3.97;;;2.50;;
5754;SDS011;2902;42.130;24.732;2023-07-28T01:28:27;2.63;;;2.53;;
5754;SDS011;2902;42.130;24.732;2023-07-28T01:30:55;5.13;;;2.60;;
5754;SDS011;2902;42.130;24.732;2023-07-28T01:33:21;2.47;;;2.37;;
5754;SDS011;2902;42.130;24.732;2023-07-28T01:35:48;9.27;;;3.27;;
5754;SDS011;2902;42.130;24.732;2023-07-28T01:38:14;3.00;;;2.90;;
5754;SDS011;2902;42.130;24.732;2023-07-28T01:40:41;2.33;;;2.23;;
5754;SDS011;2902;42.130;24.732;2023-07-28T01:43:08;4.67;;;2.83;;
5754;SDS011;2902;42.130;24.732;2023-07-28T01:45:36;2.83;;;2.73;;
5754;SDS011;2902;42.130;24.732;2023-07-28T01:48:03;2.67;;;2.50;;
5754;SDS011;2902;42.130;24.732;2023-07-28T01:50:30;2.57;;;2.37;;
5754;SDS011;2902;42.130;24.732;2023-07-28T01:52:57;6.03;;;3.13;;
5754;SDS011;2902;42.130;24.732;2023-07-28T01:55:24;2.80;;;2.70;;
5754;SDS011;2902;42.130;24.732;2023-07-28T01:57:53;3.00;;;2.80;;
5754;SDS011;2902;42.130;24.732;2023-07-28T02:00:21;3.20;;;3.00;;
5754;SDS011;2902;42.130;24.732;2023-07-28T02:02:50;3.90;;;3.07;;
5754;SDS011;2902;42.130;24.732;2023-07-28T02:05:17;4.57;;;3.30;;
5754;SDS011;2902;42.130;24.732;2023-07-28T02:07:44;2.83;;;2.63;;
5754;SDS011;2902;42.130;24.732;2023-07-28T02:10:10;3.20;;;3.00;;
5754;SDS011;2902;42.130;24.732;2023-07-28T02:12:37;3.27;;;3.07;;
5754;SDS011;2902;42.130;24.732;2023-07-28T02:15:05;3.17;;;2.93;;
5754;SDS011;2902;42.130;24.732;2023-07-28T02:17:32;3.13;;;2.90;;
5754;SDS011;2902;42.130;24.732;2023-07-28T02:20:00;4.80;;;3.33;;
5754;SDS011;2902;42.130;24.732;2023-07-28T02:22:28;3.27;;;3.10;;
5754;SDS011;2902;42.130;24.732;2023-07-28T02:24:55;3.90;;;3.60;;
5754;SDS011;2902;42.130;24.732;2023-07-28T02:27:25;3.63;;;3.43;;
5754;SDS011;2902;42.130;24.732;2023-07-28T02:29:52;3.90;;;3.70;;
5754;SDS011;2902;42.130;24.732;2023-07-28T02:32:18;7.50;;;3.47;;
5754;SDS011;2902;42.130;24.732;2023-07-28T02:34:45;3.83;;;3.53;;
5754;SDS011;2902;42.130;24.732;2023-07-28T02:37:13;3.63;;;3.43;;
5754;SDS011;2902;42.130;24.732;2023-07-28T02:39:40;3.77;;;3.47;;
5754;SDS011;2902;42.130;24.732;2023-07-28T02:42:07;3.30;;;3.10;;
5754;SDS011;2902;42.130;24.732;2023-07-28T02:44:34;3.67;;;3.20;;
5754;SDS011;2902;42.130;24.732;2023-07-28T02:47:00;4.33;;;3.40;;
5754;SDS011;2902;42.130;24.732;2023-07-28T02:49:27;4.47;;;4.10;;
5754;SDS011;2902;42.130;24.732;2023-07-28T02:51:54;10.00;;;3.70;;
5754;SDS011;2902;42.130;24.732;2023-07-28T02:54:22;5.80;;;3.57;;
5754;SDS011;2902;42.130;24.732;2023-07-28T02:56:50;3.30;;;3.10;;
5754;SDS011;2902;42.130;24.732;2023-07-28T02:59:16;4.87;;;3.10;;
5754;SDS011;2902;42.130;24.732;2023-07-28T03:01:43;3.47;;;3.27;;
5754;SDS011;2902;42.130;24.732;2023-07-28T03:04:10;4.20;;;3.70;;
5754;SDS011;2902;42.130;24.732;2023-07-28T03:06:36;4.10;;;3.20;;
5754;SDS011;2902;42.130;24.732;2023-07-28T03:09:03;5.43;;;3.40;;
5754;SDS011;2902;42.130;24.732;2023-07-28T03:11:31;7.43;;;3.40;;
5754;SDS011;2902;42.130;24.732;2023-07-28T03:13:58;7.07;;;3.40;;
5754;SDS011;2902;42.130;24.732;2023-07-28T03:16:24;5.50;;;3.60;;
5754;SDS011;2902;42.130;24.732;2023-07-28T03:18:51;7.73;;;3.90;;
5754;SDS011;2902;42.130;24.732;2023-07-28T03:21:18;4.27;;;3.80;;
5754;SDS011;2902;42.130;24.732;2023-07-28T03:23:44;5.07;;;3.57;;
5754;SDS011;2902;42.130;24.732;2023-07-28T03:26:11;3.43;;;3.13;;
5754;SDS011;2902;42.130;24.732;2023-07-28T03:28:39;4.10;;;3.70;;
5754;SDS011;2902;42.130;24.732;2023-07-28T03:31:06;5.93;;;3.30;;
5754;SDS011;2902;42.130;24.732;2023-07-28T03:33:33;4.77;;;4.20;;
5754;SDS011;2902;42.130;24.732;2023-07-28T03:35:59;8.17;;;4.20;;
5754;SDS011;2902;42.130;24.732;2023-07-28T03:38:26;5.73;;;3.80;;
5754;SDS011;2902;42.130;24.732;2023-07-28T03:40:53;4.37;;;3.63;;
5754;SDS011;2902;42.130;24.732;2023-07-28T03:43:20;4.20;;;3.23;;
5754;SDS011;2902;42.130;24.732;2023-07-28T03:45:48;5.90;;;3.97;;
5754;SDS011;2902;42.130;24.732;2023-07-28T03:48:15;3.50;;;3.20;;
5754;SDS011;2902;42.130;24.732;2023-07-28T03:50:41;3.20;;;2.97;;
5754;SDS011;2902;42.130;24.732;2023-07-28T03:53:08;6.13;;;3.90;;
5754;SDS011;2902;42.130;24.732;2023-07-28T03:55:35;4.33;;;3.33;;
5754;SDS011;2902;42.130;24.732;2023-07-28T03:58:01;3.87;;;3.40;;
5754;SDS011;2902;42.130;24.732;2023-07-28T04:00:29;14.70;;;3.87;;
5754;SDS011;2902;42.130;24.732;2023-07-28T04:02:57;3.40;;;3.13;;
5754;SDS011;2902;42.130;24.732;2023-07-28T04:05:24;5.27;;;3.30;;
5754;SDS011;2902;42.130;24.732;2023-07-28T04:07:50;3.80;;;3.07;;
5754;SDS011;2902;42.130;24.732;2023-07-28T04:10:17;4.93;;;2.70;;
5754;SDS011;2902;42.130;24.732;2023-07-28T04:12:44;6.97;;;3.27;;
5754;SDS011;2902;42.130;24.732;2023-07-28T04:15:10;8.80;;;3.00;;
5754;SDS011;2902;42.130;24.732;2023-07-28T04:17:37;4.93;;;2.27;;
5754;SDS011;2902;42.130;24.732;2023-07-28T04:20:06;2.50;;;2.30;;
5754;SDS011;2902;42.130;24.732;2023-07-28T04:22:33;4.67;;;2.57;;
5754;SDS011;2902;42.130;24.732;2023-07-28T04:25:00;2.90;;;2.40;;
5754;SDS011;2902;42.130;24.732;2023-07-28T04:27:27;3.97;;;2.40;;
5754;SDS011;2902;42.130;24.732;2023-07-28T04:29:53;2.23;;;2.13;;
5754;SDS011;2902;42.130;24.732;2023-07-28T04:32:20;3.13;;;2.50;;
5754;SDS011;2902;42.130;24.732;2023-07-28T04:34:47;5.20;;;2.67;;
5754;SDS011;2902;42.130;24.732;2023-07-28T04:37:15;2.50;;;1.90;;
5754;SDS011;2902;42.130;24.732;2023-07-28T04:39:41;4.50;;;2.30;;
5754;SDS011;2902;42.130;24.732;2023-07-28T04:42:08;2.93;;;2.63;;
5754;SDS011;2902;42.130;24.732;2023-07-28T04:44:35;3.43;;;1.93;;
5754;SDS011;2902;42.130;24.732;2023-07-28T04:47:02;2.77;;;2.20;;
5754;SDS011;2902;42.130;24.732;2023-07-28T04:49:29;6.50;;;2.57;;
5754;SDS011;2902;42.130;24.732;2023-07-28T04:51:56;14.20;;;3.03;;
5754;SDS011;2902;42.130;24.732;2023-07-28T04:54:24;5.83;;;2.50;;
5754;SDS011;2902;42.130;24.732;2023-07-28T04:56:50;5.20;;;2.30;;
5754;SDS011;2902;42.130;24.732;2023-07-28T04:59:18;8.73;;;2.30;;
5754;SDS011;2902;42.130;24.732;2023-07-28T05:01:45;3.23;;;2.43;;
5754;SDS011;2902;42.130;24.732;2023-07-28T05:04:11;4.90;;;2.27;;
5754;SDS011;2902;42.130;24.732;2023-07-28T05:06:38;3.20;;;1.88;;
5754;SDS011;2902;42.130;24.732;2023-07-28T05:09:04;3.10;;;2.33;;
5754;SDS011;2902;42.130;24.732;2023-07-28T05:11:33;4.38;;;2.03;;
5754;SDS011;2902;42.130;24.732;2023-07-28T05:13:59;11.07;;;2.50;;
5754;SDS011;2902;42.130;24.732;2023-07-28T05:16:26;7.68;;;2.20;;
5754;SDS011;2902;42.130;24.732;2023-07-28T05:18:53;5.10;;;2.30;;
5754;SDS011;2902;42.130;24.732;2023-07-28T05:21:19;3.63;;;2.50;;
5754;SDS011;2902;42.130;24.732;2023-07-28T05:23:47;3.60;;;2.85;;
5754;SDS011;2902;42.130;24.732;2023-07-28T05:26:13;6.70;;;2.42;;
5754;SDS011;2902;42.130;24.732;2023-07-28T05:28:41;2.90;;;2.10;;
5754;SDS011;2902;42.130;24.732;2023-07-28T05:31:08;2.33;;;2.13;;
5754;SDS011;2902;42.130;24.732;2023-07-28T05:33:35;5.35;;;2.05;;
5754;SDS011;2902;42.130;24.732;2023-07-28T05:36:05;4.85;;;2.33;;
5754;SDS011;2902;42.130;24.732;2023-07-28T05:38:31;4.82;;;2.25;;
5754;SDS011;2902;42.130;24.732;2023-07-28T05:40:58;2.17;;;2.03;;
5754;SDS011;2902;42.130;24.732;2023-07-28T05:43:26;3.92;;;2.45;;
5754;SDS011;2902;42.130;24.732;2023-07-28T05:45:54;4.15;;;2.25;;
5754;SDS011;2902;42.130;24.732;2023-07-28T05:48:21;5.18;;;2.20;;
5754;SDS011;2902;42.130;24.732;2023-07-28T05:50:47;2.95;;;2.10;;
5754;SDS011;2902;42.130;24.732;2023-07-28T05:53:16;2.50;;;2.20;;
5754;SDS011;2902;42.130;24.732;2023-07-28T05:55:43;5.90;;;2.30;;
5754;SDS011;2902;42.130;24.732;2023-07-28T05:58:09;2.22;;;1.80;;
5754;SDS011;2902;42.130;24.732;2023-07-28T06:00:38;3.95;;;2.05;;
5754;SDS011;2902;42.130;24.732;2023-07-28T06:03:06;1.92;;;1.75;;
5754;SDS011;2902;42.130;24.732;2023-07-28T06:05:33;3.40;;;2.20;;
5754;SDS011;2902;42.130;24.732;2023-07-28T06:08:00;3.67;;;2.13;;
5754;SDS011;2902;42.130;24.732;2023-07-28T06:10:27;6.53;;;2.72;;
5754;SDS011;2902;42.130;24.732;2023-07-28T06:12:53;2.78;;;2.47;;
5754;SDS011;2902;42.130;24.732;2023-07-28T06:15:20;4.88;;;2.60;;
5754;SDS011;2902;42.130;24.732;2023-07-28T06:17:47;8.90;;;2.33;;
5754;SDS011;2902;42.130;24.732;2023-07-28T06:20:15;9.57;;;2.33;;
5754;SDS011;2902;42.130;24.732;2023-07-28T06:22:42;7.30;;;2.28;;
5754;SDS011;2902;42.130;24.732;2023-07-28T06:25:08;2.25;;;2.05;;
5754;SDS011;2902;42.130;24.732;2023-07-28T06:27:35;4.22;;;2.20;;
5754;SDS011;2902;42.130;24.732;2023-07-28T06:30:04;3.50;;;1.75;;
5754;SDS011;2902;42.130;24.732;2023-07-28T06:32:31;10.88;;;2.50;;
5754;SDS011;2902;42.130;24.732;2023-07-28T06:34:58;2.97;;;2.10;;
5754;SDS011;2902;42.130;24.732;2023-07-28T06:37:26;4.75;;;2.40;;
5754;SDS011;2902;42.130;24.732;2023-07-28T06:39:53;5.22;;;2.15;;
5754;SDS011;2902;42.130;24.732;2023-07-28T06:42:20;4.35;;;1.90;;
5754;SDS011;2902;42.130;24.732;2023-07-28T06:44:49;6.53;;;2.10;;
5754;SDS011;2902;42.130;24.732;2023-07-28T06:47:16;3.45;;;2.35;;
5754;SDS011;2902;42.130;24.732;2023-07-28T06:49:43;5.70;;;2.38;;
5754;SDS011;2902;42.130;24.732;2023-07-28T06:52:10;6.93;;;3.47;;
5754;SDS011;2902;42.130;24.732;2023-07-28T06:54:38;7.18;;;3.17;;
5754;SDS011;2902;42.130;24.732;2023-07-28T06:57:05;7.93;;;3.35;;
5754;SDS011;2902;42.130;24.732;2023-07-28T06:59:32;6.05;;;3.13;;
5754;SDS011;2902;42.130;24.732;2023-07-28T07:01:59;8.13;;;3.00;;
5754;SDS011;2902;42.130;24.732;2023-07-28T07:04:26;6.35;;;2.95;;
5754;SDS011;2902;42.130;24.732;2023-07-28T07:06:52;7.53;;;2.95;;
5754;SDS011;2902;42.130;24.732;2023-07-28T07:09:19;6.53;;;2.80;;
5754;SDS011;2902;42.130;24.732;2023-07-28T07:11:47;6.43;;;2.90;;
5754;SDS011;2902;42.130;24.732;2023-07-28T07:14:14;6.35;;;3.00;;
5754;SDS011;2902;42.130;24.732;2023-07-28T07:16:40;6.10;;;2.45;;
5754;SDS011;2902;42.130;24.732;2023-07-28T07:19:07;5.35;;;2.58;;
5754;SDS011;2902;42.130;24.732;2023-07-28T07:21:34;3.05;;;1.83;;
5754;SDS011;2902;42.130;24.732;2023-07-28T07:24:02;2.58;;;1.80;;
5754;SDS011;2902;42.130;24.732;2023-07-28T07:26:29;4.45;;;2.33;;
5754;SDS011;2902;42.130;24.732;2023-07-28T07:28:57;7.60;;;2.38;;
5754;SDS011;2902;42.130;24.732;2023-07-28T07:31:24;3.08;;;1.80;;
5754;SDS011;2902;42.130;24.732;2023-07-28T07:33:51;5.03;;;2.47;;
5754;SDS011;2902;42.130;24.732;2023-07-28T07:36:18;5.30;;;3.33;;
5754;SDS011;2902;42.130;24.732;2023-07-28T07:38:46;4.00;;;2.60;;
5754;SDS011;2902;42.130;24.732;2023-07-28T07:41:13;6.07;;;2.53;;
5754;SDS011;2902;42.130;24.732;2023-07-28T07:43:44;9.63;;;2.10;;
5754;SDS011;2902;42.130;24.732;2023-07-28T07:46:13;3.22;;;2.35;;
5754;SDS011;2902;42.130;24.732;2023-07-28T07:48:40;3.03;;;1.80;;
5754;SDS011;2902;42.130;24.732;2023-07-28T07:51:07;1.67;;;1.58;;
5754;SDS011;2902;42.130;24.732;2023-07-28T07:53:34;3.33;;;1.52;;
5754;SDS011;2902;42.130;24.732;2023-07-28T07:56:02;3.22;;;1.80;;
5754;SDS011;2902;42.130;24.732;2023-07-28T07:58:29;2.30;;;2.10;;
5754;SDS011;2902;42.130;24.732;2023-07-28T08:00:56;2.03;;;1.57;;
5754;SDS011;2902;42.130;24.732;2023-07-28T08:03:24;2.13;;;1.87;;
5754;SDS011;2902;42.130;24.732;2023-07-28T08:05:52;3.03;;;1.50;;
5754;SDS011;2902;42.130;24.732;2023-07-28T08:08:19;1.90;;;1.80;;
5754;SDS011;2902;42.130;24.732;2023-07-28T08:10:46;1.90;;;1.70;;
5754;SDS011;2902;42.130;24.732;2023-07-28T08:13:13;3.83;;;1.60;;
5754;SDS011;2902;42.130;24.732;2023-07-28T08:15:40;2.87;;;1.80;;
5754;SDS011;2902;42.130;24.732;2023-07-28T08:18:10;1.97;;;1.50;;
5754;SDS011;2902;42.130;24.732;2023-07-28T08:20:38;3.90;;;1.93;;
5754;SDS011;2902;42.130;24.732;2023-07-28T08:23:05;3.17;;;1.80;;
5754;SDS011;2902;42.130;24.732;2023-07-28T08:25:32;11.27;;;2.37;;
5754;SDS011;2902;42.130;24.732;2023-07-28T08:27:59;3.63;;;1.97;;
5754;SDS011;2902;42.130;24.732;2023-07-28T08:30:26;3.37;;;1.80;;
5754;SDS011;2902;42.130;24.732;2023-07-28T08:32:53;1.77;;;1.63;;
5754;SDS011;2902;42.130;24.732;2023-07-28T08:35:19;2.83;;;1.90;;
5754;SDS011;2902;42.130;24.732;2023-07-28T08:37:47;3.53;;;1.80;;
5754;SDS011;2902;42.130;24.732;2023-07-28T08:40:14;1.80;;;1.50;;
5754;SDS011;2902;42.130;24.732;2023-07-28T08:42:41;3.23;;;1.60;;
5754;SDS011;2902;42.130;24.732;2023-07-28T08:45:08;2.03;;;1.77;;
5754;SDS011;2902;42.130;24.732;2023-07-28T08:47:35;2.63;;;2.15;;
5754;SDS011;2902;42.130;24.732;2023-07-28T08:50:02;3.90;;;1.60;;
5754;SDS011;2902;42.130;24.732;2023-07-28T08:52:31;4.10;;;2.05;;
5754;SDS011;2902;42.130;24.732;2023-07-28T08:54:59;6.22;;;1.50;;
5754;SDS011;2902;42.130;24.732;2023-07-28T08:57:26;2.20;;;1.60;;
5754;SDS011;2902;42.130;24.732;2023-07-28T08:59:54;1.65;;;1.55;;
5754;SDS011;2902;42.130;24.732;2023-07-28T09:02:21;1.60;;;1.48;;
5754;SDS011;2902;42.130;24.732;2023-07-28T09:04:48;1.63;;;1.52;;
5754;SDS011;2902;42.130;24.732;2023-07-28T09:07:15;4.25;;;1.88;;
5754;SDS011;2902;42.130;24.732;2023-07-28T09:09:42;3.05;;;1.83;;
5754;SDS011;2902;42.130;24.732;2023-07-28T09:12:10;3.15;;;1.77;;
5754;SDS011;2902;42.130;24.732;2023-07-28T09:14:37;7.20;;;1.88;;
5754;SDS011;2902;42.130;24.732;2023-07-28T09:17:08;1.83;;;1.65;;
5754;SDS011;2902;42.130;24.732;2023-07-28T09:19:48;1.60;;;1.50;;
5754;SDS011;2902;42.130;24.732;2023-07-28T09:22:17;1.50;;;1.40;;
5754;SDS011;2902;42.130;24.732;2023-07-28T09:24:44;1.60;;;1.48;;
5754;SDS011;2902;42.130;24.732;2023-07-28T09:27:20;1.45;;;1.35;;
5754;SDS011;2902;42.130;24.732;2023-07-28T09:29:48;1.30;;;1.30;;
5754;SDS011;2902;42.130;24.732;2023-07-28T09:32:16;1.20;;;1.20;;
5754;SDS011;2902;42.130;24.732;2023-07-28T09:34:43;1.70;;;1.55;;
5754;SDS011;2902;42.130;24.732;2023-07-28T09:37:09;1.20;;;1.20;;
5754;SDS011;2902;42.130;24.732;2023-07-28T09:39:37;1.70;;;1.60;;
5754;SDS011;2902;42.130;24.732;2023-07-28T09:42:07;2.10;;;1.30;;
5754;SDS011;2902;42.130;24.732;2023-07-28T09:44:37;1.70;;;1.43;;
5754;SDS011;2902;42.130;24.732;2023-07-28T09:47:03;1.60;;;1.30;;
5754;SDS011;2902;42.130;24.732;2023-07-28T09:49:33;1.53;;;1.43;;
5754;SDS011;2902;42.130;24.732;2023-07-28T09:52:03;2.03;;;1.30;;
5754;SDS011;2902;42.130;24.732;2023-07-28T09:54:33;1.23;;;1.17;;
5754;SDS011;2902;42.130;24.732;2023-07-28T09:57:04;2.50;;;1.43;;
5754;SDS011;2902;42.130;24.732;2023-07-28T09:59:38;1.52;;;1.42;;
5754;SDS011;2902;42.130;24.732;2023-07-28T10:02:06;3.05;;;1.48;;
5754;SDS011;2902;42.130;24.732;2023-07-28T10:04:33;2.23;;;1.60;;
5754;SDS011;2902;42.130;24.732;2023-07-28T10:07:00;1.73;;;1.63;;
5754;SDS011;2902;42.130;24.732;2023-07-28T10:09:28;2.08;;;1.35;;
5754;SDS011;2902;42.130;24.732;2023-07-28T10:11:58;2.35;;;1.48;;
5754;SDS011;2902;42.130;24.732;2023-07-28T10:14:26;1.77;;;1.50;;
5754;SDS011;2902;42.130;24.732;2023-07-28T10:16:55;1.50;;;1.50;;
5754;SDS011;2902;42.130;24.732;2023-07-28T10:19:24;5.13;;;1.60;;
5754;SDS011;2902;42.130;24.732;2023-07-28T10:21:58;2.55;;;1.63;;
5754;SDS011;2902;42.130;24.732;2023-07-28T10:27:28;6.85;;;1.70;;
5754;SDS011;2902;42.130;24.732;2023-07-28T10:29:56;2.10;;;1.40;;
5754;SDS011;2902;42.130;24.732;2023-07-28T10:32:28;1.73;;;1.40;;
5754;SDS011;2902;42.130;24.732;2023-07-28T10:34:58;1.53;;;1.43;;
5754;SDS011;2902;42.130;24.732;2023-07-28T10:37:25;2.97;;;1.97;;
5754;SDS011;2902;42.130;24.732;2023-07-28T10:42:50;3.63;;;1.63;;
5754;SDS011;2902;42.130;24.732;2023-07-28T10:45:17;2.50;;;1.63;;
5754;SDS011;2902;42.130;24.732;2023-07-28T10:47:46;2.60;;;1.50;;
5754;SDS011;2902;42.130;24.732;2023-07-28T10:50:13;1.60;;;1.50;;
5754;SDS011;2902;42.130;24.732;2023-07-28T10:52:41;1.93;;;1.50;;
5754;SDS011;2902;42.130;24.732;2023-07-28T10:55:12;1.67;;;1.50;;
5754;SDS011;2902;42.130;24.732;2023-07-28T10:57:40;1.67;;;1.57;;
5754;SDS011;2902;42.130;24.732;2023-07-28T11:00:08;1.93;;;1.60;;
5754;SDS011;2902;42.130;24.732;2023-07-28T11:02:37;1.70;;;1.60;;
5754;SDS011;2902;42.130;24.732;2023-07-28T11:05:09;2.33;;;1.40;;
5754;SDS011;2902;42.130;24.732;2023-07-28T11:07:37;1.67;;;1.57;;
5754;SDS011;2902;42.130;24.732;2023-07-28T11:10:04;1.77;;;1.67;;
5754;SDS011;2902;42.130;24.732;2023-07-28T11:12:32;5.97;;;3.70;;
5754;SDS011;2902;42.130;24.732;2023-07-28T11:14:59;1.50;;;1.40;;
5754;SDS011;2902;42.130;24.732;2023-07-28T11:17:26;2.23;;;1.60;;
5754;SDS011;2902;42.130;24.732;2023-07-28T11:19:53;1.88;;;1.77;;
5754;SDS011;2902;42.130;24.732;2023-07-28T11:22:21;2.13;;;1.90;;
5754;SDS011;2902;42.130;24.732;2023-07-28T11:24:50;3.10;;;1.30;;
5754;SDS011;2902;42.130;24.732;2023-07-28T11:27:17;1.50;;;1.40;;
5754;SDS011;2902;42.130;24.732;2023-07-28T11:29:44;2.03;;;1.80;;
5754;SDS011;2902;42.130;24.732;2023-07-28T11:32:11;1.80;;;1.63;;
5754;SDS011;2902;42.130;24.732;2023-07-28T11:34:41;1.05;;;1.05;;
5754;SDS011;2902;42.130;24.732;2023-07-28T11:37:09;4.88;;;1.52;;
5754;SDS011;2902;42.130;24.732;2023-07-28T11:39:38;1.42;;;1.33;;
5754;SDS011;2902;42.130;24.732;2023-07-28T11:42:06;2.40;;;1.52;;
5754;SDS011;2902;42.130;24.732;2023-07-28T11:44:33;2.05;;;1.60;;
5754;SDS011;2902;42.130;24.732;2023-07-28T11:47:00;1.80;;;1.50;;
5754;SDS011;2902;42.130;24.732;2023-07-28T11:49:31;1.80;;;1.38;;
5754;SDS011;2902;42.130;24.732;2023-07-28T11:51:57;1.63;;;1.40;;
5754;SDS011;2902;42.130;24.732;2023-07-28T11:54:25;1.50;;;1.40;;
5754;SDS011;2902;42.130;24.732;2023-07-28T11:56:55;2.03;;;1.30;;
5754;SDS011;2902;42.130;24.732;2023-07-28T11:59:23;2.53;;;1.60;;
5754;SDS011;2902;42.130;24.732;2023-07-28T12:01:53;1.37;;;1.27;;
5754;SDS011;2902;42.130;24.732;2023-07-28T12:04:24;1.70;;;1.60;;
5754;SDS011;2902;42.130;24.732;2023-07-28T12:07:03;1.87;;;1.77;;
5754;SDS011;2902;42.130;24.732;2023-07-28T12:09:31;1.97;;;1.50;;
5754;SDS011;2902;42.130;24.732;2023-07-28T12:11:59;1.87;;;1.77;;
5754;SDS011;2902;42.130;24.732;2023-07-28T12:14:33;1.57;;;1.50;;
5754;SDS011;2902;42.130;24.732;2023-07-28T12:17:00;1.37;;;1.30;;
5754;SDS011;2902;42.130;24.732;2023-07-28T12:19:28;1.70;;;1.60;;
5754;SDS011;2902;42.130;24.732;2023-07-28T12:21:55;1.90;;;1.80;;
5754;SDS011;2902;42.130;24.732;2023-07-28T12:24:22;1.80;;;1.70;;
5754;SDS011;2902;42.130;24.732;2023-07-28T12:26:50;7.23;;;1.80;;
5754;SDS011;2902;42.130;24.732;2023-07-28T12:29:18;1.67;;;1.17;;
5754;SDS011;2902;42.130;24.732;2023-07-28T12:31:50;1.77;;;1.50;;
5754;SDS011;2902;42.130;24.732;2023-07-28T12:34:17;1.80;;;1.70;;
5754;SDS011;2902;42.130;24.732;2023-07-28T12:36:51;2.55;;;1.60;;
5754;SDS011;2902;42.130;24.732;2023-07-28T12:39:19;1.65;;;1.55;;
5754;SDS011;2902;42.130;24.732;2023-07-28T12:41:46;1.70;;;1.60;;
5754;SDS011;2902;42.130;24.732;2023-07-28T12:44:13;2.58;;;1.65;;
5754;SDS011;2902;42.130;24.732;2023-07-28T12:46:41;1.90;;;1.80;;
5754;SDS011;2902;42.130;24.732;2023-07-28T12:49:08;1.65;;;1.52;;
5754;SDS011;2902;42.130;24.732;2023-07-28T12:51:35;1.67;;;1.58;;
5754;SDS011;2902;42.130;24.732;2023-07-28T12:54:01;3.05;;;1.60;;
5754;SDS011;2902;42.130;24.732;2023-07-28T12:56:29;5.70;;;2.00;;
5754;SDS011;2902;42.130;24.732;2023-07-28T12:58:56;1.70;;;1.35;;
5754;SDS011;2902;42.130;24.732;2023-07-28T13:01:23;1.63;;;1.53;;
5754;SDS011;2902;42.130;24.732;2023-07-28T13:03:51;1.50;;;1.50;;
5754;SDS011;2902;42.130;24.732;2023-07-28T13:06:18;1.60;;;1.57;;
5754;SDS011;2902;42.130;24.732;2023-07-28T13:08:45;1.50;;;1.40;;
5754;SDS011;2902;42.130;24.732;2023-07-28T13:11:12;1.77;;;1.67;;
5754;SDS011;2902;42.130;24.732;2023-07-28T13:13:40;2.27;;;1.80;;
5754;SDS011;2902;42.130;24.732;2023-07-28T13:16:07;1.77;;;1.67;;
5754;SDS011;2902;42.130;24.732;2023-07-28T13:18:34;3.77;;;2.00;;
5754;SDS011;2902;42.130;24.732;2023-07-28T13:21:02;6.80;;;2.20;;
5754;SDS011;2902;42.130;24.732;2023-07-28T13:23:28;2.40;;;1.77;;
5754;SDS011;2902;42.130;24.732;2023-07-28T13:25:55;1.57;;;1.27;;
5754;SDS011;2902;42.130;24.732;2023-07-28T13:28:22;4.30;;;1.80;;
5754;SDS011;2902;42.130;24.732;2023-07-28T13:30:49;2.17;;;1.97;;
5754;SDS011;2902;42.130;24.732;2023-07-28T13:33:15;1.77;;;1.60;;
5754;SDS011;2902;42.130;24.732;2023-07-28T13:35:42;2.30;;;1.80;;
5754;SDS011;2902;42.130;24.732;2023-07-28T13:38:10;2.57;;;1.50;;
5754;SDS011;2902;42.130;24.732;2023-07-28T13:40:37;3.90;;;1.87;;
5754;SDS011;2902;42.130;24.732;2023-07-28T13:43:03;3.22;;;2.92;;
5754;SDS011;2902;42.130;24.732;2023-07-28T13:45:30;1.47;;;1.43;;
5754;SDS011;2902;42.130;24.732;2023-07-28T13:47:57;1.67;;;1.50;;
5754;SDS011;2902;42.130;24.732;2023-07-28T13:50:24;1.87;;;1.77;;
5754;SDS011;2902;42.130;24.732;2023-07-28T13:52:51;2.00;;;1.90;;
5754;SDS011;2902;42.130;24.732;2023-07-28T13:55:19;3.03;;;1.60;;
5754;SDS011;2902;42.130;24.732;2023-07-28T13:57:45;2.40;;;1.83;;
5754;SDS011;2902;42.130;24.732;2023-07-28T14:00:12;2.10;;;2.00;;
5754;SDS011;2902;42.130;24.732;2023-07-28T14:02:39;1.83;;;1.73;;
5754;SDS011;2902;42.130;24.732;2023-07-28T14:05:07;2.17;;;1.97;;
5754;SDS011;2902;42.130;24.732;2023-07-28T14:07:34;2.77;;;1.80;;
5754;SDS011;2902;42.130;24.732;2023-07-28T14:10:01;2.77;;;2.07;;
5754;SDS011;2902;42.130;24.732;2023-07-28T14:12:29;2.20;;;1.83;;
5754;SDS011;2902;42.130;24.732;2023-07-28T14:14:55;1.60;;;1.50;;
5754;SDS011;2902;42.130;24.732;2023-07-28T14:17:22;4.83;;;1.43;;
5754;SDS011;2902;42.130;24.732;2023-07-28T14:19:49;2.80;;;1.70;;
5754;SDS011;2902;42.130;24.732;2023-07-28T14:22:16;3.63;;;1.80;;
5754;SDS011;2902;42.130;24.732;2023-07-28T14:24:43;2.23;;;2.03;;
5754;SDS011;2902;42.130;24.732;2023-07-28T14:27:10;1.70;;;1.60;;
5754;SDS011;2902;42.130;24.732;2023-07-28T14:29:38;2.37;;;1.70;;
5754;SDS011;2902;42.130;24.732;2023-07-28T14:32:05;3.00;;;1.80;;
5754;SDS011;2902;42.130;24.732;2023-07-28T14:34:32;2.07;;;1.97;;
5754;SDS011;2902;42.130;24.732;2023-07-28T14:37:00;2.27;;;2.00;;
5754;SDS011;2902;42.130;24.732;2023-07-28T14:39:30;2.00;;;1.90;;
5754;SDS011;2902;42.130;24.732;2023-07-28T14:41:57;1.90;;;1.63;;
5754;SDS011;2902;42.130;24.732;2023-07-28T14:44:24;1.90;;;1.80;;
5754;SDS011;2902;42.130;24.732;2023-07-28T14:46:52;1.80;;;1.70;;
5754;SDS011;2902;42.130;24.732;2023-07-28T14:49:18;2.50;;;2.03;;
5754;SDS011;2902;42.130;24.732;2023-07-28T14:51:45;2.53;;;2.40;;
5754;SDS011;2902;42.130;24.732;2023-07-28T14:54:12;3.20;;;2.10;;
5754;SDS011;2902;42.130;24.732;2023-07-28T14:56:38;1.70;;;1.60;;
5754;SDS011;2902;42.130;24.732;2023-07-28T14:59:05;2.00;;;1.90;;
5754;SDS011;2902;42.130;24.732;2023-07-28T15:01:32;2.17;;;1.87;;
5754;SDS011;2902;42.130;24.732;2023-07-28T15:04:00;2.70;;;2.00;;
5754;SDS011;2902;42.130;24.732;2023-07-28T15:06:29;1.70;;;1.60;;
5754;SDS011;2902;42.130;24.732;2023-07-28T15:08:56;1.83;;;1.73;;